Time;durP1;ratioP1;P1;durP2;ratioP2;P2;SDS_P1;SDS_P2;PMS_P1;PMS_P2;Temp;Humidity;BMP_temperature;BMP_pressure;BME280_temperature;BME280_humidity;BME280_pressure;Samples;Min_cycle;Max_cycle;Signal;HPM_P1;HPM_P2
2024/01/11 00:07:16;;;;;;;4.30;1.00;;;16.60;58.10;;;;;;5494965;23;20612;-83
2024/01/11 00:09:42;;;;;;;1.42;0.70;;;16.60;57.90;;;;;;4888803;29;20189;-84
2024/01/11 00:12:09;;;;;;;5.40;0.90;;;16.60;58.00;;;;;;4904737;29;20182;-84
2024/01/11 00:14:35;;;;;;;3.22;0.95;;;16.60;58.00;;;;;;4887810;29;20226;-84
2024/01/11 00:17:01;;;;;;;4.88;0.82;;;16.70;58.00;;;;;;4888264;29;20190;-84
2024/01/11 00:19:29;;;;;;;1.40;0.70;;;16.60;58.00;;;;;;4869841;29;20179;-84
2024/01/11 00:21:55;;;;;;;2.42;0.68;;;16.60;57.90;;;;;;4887775;29;20174;-85
2024/01/11 00:24:20;;;;;;;2.38;0.70;;;16.60;57.90;;;;;;4887441;29;20163;-85
2024/01/11 00:26:46;;;;;;;3.72;1.08;;;16.60;58.00;;;;;;4887819;29;20160;-85
2024/01/11 00:29:13;;;;;;;1.65;0.80;;;16.60;57.90;;;;;;4903212;29;20171;-84
2024/01/11 00:31:41;;;;;;;1.75;0.77;;;16.60;58.10;;;;;;4872014;29;20167;-86
2024/01/11 00:34:07;;;;;;;2.35;0.90;;;16.60;58.00;;;;;;4902833;29;20175;-85
2024/01/11 00:49:26;;;;;;;1.15;0.60;;;16.60;58.30;;;;;;5642520;23;20276;-84
2024/01/11 00:51:51;;;;;;;1.52;0.55;;;16.60;58.10;;;;;;4874745;29;20213;-86
2024/01/11 00:54:21;;;;;;;4.47;0.88;;;16.50;58.20;;;;;;4921758;29;20187;-85
2024/01/11 00:56:47;;;;;;;2.78;0.68;;;16.50;58.40;;;;;;4905867;29;20162;-86
2024/01/11 00:59:14;;;;;;;4.03;0.90;;;16.60;58.20;;;;;;4904565;29;20171;-85
2024/01/11 01:01:49;;;;;;;2.40;0.52;;;16.60;58.10;;;;;;4921136;29;20155;-85
2024/01/11 01:04:19;;;;;;;2.78;1.00;;;16.50;57.90;;;;;;4889570;29;20209;-85
2024/01/11 01:06:45;;;;;;;2.80;0.73;;;16.60;58.00;;;;;;4919652;29;20186;-84
2024/01/11 01:09:17;;;;;;;2.13;0.68;;;16.60;58.00;;;;;;4897598;29;20563;-85
2024/01/11 01:11:42;;;;;;;2.55;0.93;;;16.60;58.20;;;;;;4885209;29;20210;-85
2024/01/11 01:14:10;;;;;;;3.38;0.73;;;16.50;58.10;;;;;;4902917;29;20646;-84
2024/01/11 01:16:36;;;;;;;1.45;0.60;;;16.50;58.30;;;;;;4884944;29;20182;-85
2024/01/11 01:19:04;;;;;;;2.42;0.75;;;16.50;58.20;;;;;;4903314;29;20184;-86
2024/01/11 01:21:30;;;;;;;5.72;0.90;;;16.50;58.10;;;;;;4886151;29;20195;-84
2024/01/11 01:23:59;;;;;;;3.83;0.90;;;16.50;58.10;;;;;;4893749;29;20208;-85
2024/01/11 01:26:28;;;;;;;3.78;0.80;;;16.50;58.20;;;;;;4857035;29;20435;-85
2024/01/11 01:28:55;;;;;;;2.92;0.70;;;16.50;58.20;;;;;;4900164;29;20168;-85
2024/01/11 01:31:21;;;;;;;3.05;0.88;;;16.50;58.00;;;;;;4884067;29;20167;-86
2024/01/11 01:33:49;;;;;;;1.10;0.77;;;16.50;58.00;;;;;;4899850;29;20204;-86
2024/01/11 01:41:26;;;;;;;4.20;0.70;;;16.50;58.00;;;;;;5865431;23;20185;-85
2024/01/11 01:43:52;;;;;;;1.40;0.70;;;16.50;58.20;;;;;;4872241;29;20183;-85
2024/01/11 01:46:21;;;;;;;2.75;0.90;;;16.50;58.10;;;;;;4872499;29;20568;-85
2024/01/11 01:48:51;;;;;;;2.28;0.70;;;16.50;58.20;;;;;;4902824;29;20614;-85
2024/01/11 01:53:54;;;;;;;1.73;0.60;;;16.40;58.30;;;;;;5021210;23;20302;-85
2024/01/11 01:56:21;;;;;;;2.60;0.82;;;16.40;58.20;;;;;;4887363;29;20177;-85
2024/01/11 02:03:59;;;;;;;4.28;0.80;;;16.40;58.30;;;;;;5108281;23;20257;-84
2024/01/11 02:06:29;;;;;;;3.95;1.02;;;16.40;58.20;;;;;;4921194;29;20155;-84
2024/01/11 02:08:57;;;;;;;2.03;0.60;;;16.40;58.20;;;;;;4859004;29;20192;-85
2024/01/11 02:11:23;;;;;;;1.42;0.70;;;16.40;58.20;;;;;;4905343;29;20229;-85
2024/01/11 02:13:50;;;;;;;2.65;0.52;;;16.40;58.20;;;;;;4920812;29;20269;-83
2024/01/11 02:16:16;;;;;;;2.58;0.77;;;16.50;58.30;;;;;;4905443;29;20178;-83
2024/01/11 02:26:28;;;;;;;1.55;0.60;;;16.40;58.00;;;;;;5893059;23;20184;-84
2024/01/11 02:28:54;;;;;;;0.90;0.50;;;16.40;58.20;;;;;;4919326;29;20182;-84
2024/01/11 02:31:24;;;;;;;4.70;0.77;;;16.40;58.40;;;;;;4900637;29;20167;-84
2024/01/11 02:33:55;;;;;;;3.30;0.85;;;16.40;58.30;;;;;;4868360;29;20210;-85
2024/01/11 02:36:21;;;;;;;1.77;0.63;;;16.30;58.40;;;;;;4868878;29;20187;-84
2024/01/11 02:38:48;;;;;;;2.13;0.73;;;16.40;58.20;;;;;;4916519;29;20250;-84
2024/01/11 02:43:46;;;;;;;2.40;0.60;;;16.40;57.90;;;;;;5247411;23;20246;-84
2024/01/11 02:46:12;;;;;;;2.08;0.68;;;16.40;58.30;;;;;;4880703;29;20283;-84
2024/01/11 02:48:38;;;;;;;2.33;0.82;;;16.40;58.40;;;;;;4881368;29;20199;-85
2024/01/11 02:51:04;;;;;;;2.15;0.60;;;16.40;58.40;;;;;;4897032;29;20183;-84
2024/01/11 02:53:34;;;;;;;2.35;0.50;;;16.40;58.30;;;;;;4881401;29;20176;-84
2024/01/11 02:56:03;;;;;;;3.33;0.70;;;16.40;58.40;;;;;;4866842;29;20181;-86
2024/01/11 02:58:29;;;;;;;3.97;0.80;;;16.40;58.20;;;;;;4897122;29;20227;-85
2024/01/11 03:00:58;;;;;;;1.48;0.70;;;16.30;58.20;;;;;;4886331;29;20160;-85
2024/01/11 03:13:49;;;;;;;1.73;0.75;;;16.40;58.30;;;;;;5031136;23;20241;-84
2024/01/11 03:16:15;;;;;;;3.53;0.75;;;16.30;58.40;;;;;;4920330;29;20553;-85
2024/01/11 03:18:41;;;;;;;1.63;0.60;;;16.30;58.40;;;;;;4872867;29;20198;-84
2024/01/11 03:21:07;;;;;;;1.92;0.60;;;16.30;58.40;;;;;;4887891;29;20195;-85
2024/01/11 03:23:35;;;;;;;2.63;0.80;;;16.30;59.00;;;;;;4875400;29;20166;-85
2024/01/11 03:26:00;;;;;;;2.08;0.57;;;16.30;58.50;;;;;;4887804;29;20234;-84
2024/01/11 03:33:59;;;;;;;2.78;0.70;;;16.40;58.40;;;;;;5727216;23;20237;-86
2024/01/11 03:36:26;;;;;;;3.15;0.70;;;16.40;58.20;;;;;;4906088;29;20494;-85
2024/01/11 03:38:52;;;;;;;4.45;0.82;;;16.30;59.00;;;;;;4890237;29;20229;-86
2024/01/11 03:41:19;;;;;;;2.65;0.60;;;16.30;58.30;;;;;;4925556;29;20166;-84
2024/01/11 03:43:47;;;;;;;3.08;0.55;;;16.30;58.30;;;;;;4910263;29;20165;-85
2024/01/11 03:56:39;;;;;;;3.10;0.50;;;16.30;58.20;;;;;;5358786;23;20234;-84
2024/01/11 03:59:06;;;;;;;2.72;0.82;;;16.30;58.20;;;;;;4856396;29;20535;-83
2024/01/11 04:01:32;;;;;;;1.13;0.65;;;16.30;58.20;;;;;;4854337;29;20659;-84
2024/01/11 04:03:58;;;;;;;1.95;0.80;;;16.30;58.20;;;;;;4865623;29;20183;-83
2024/01/11 04:06:26;;;;;;;4.40;0.70;;;16.30;58.30;;;;;;4853604;29;20176;-83
2024/01/11 04:08:56;;;;;;;0.70;0.50;;;16.30;58.60;;;;;;4821624;29;20206;-84
2024/01/11 04:11:29;;;;;;;3.58;0.70;;;16.20;58.30;;;;;;4853281;29;20164;-84
2024/01/11 04:13:56;;;;;;;1.08;0.50;;;16.30;58.20;;;;;;4869104;29;20208;-85
2024/01/11 04:16:23;;;;;;;1.50;0.70;;;16.30;58.40;;;;;;4851680;29;20196;-84
2024/01/11 04:18:50;;;;;;;3.08;0.70;;;16.30;58.30;;;;;;4821495;29;20228;-84
2024/01/11 04:21:24;;;;;;;1.95;0.60;;;16.30;58.20;;;;;;4886727;29;20599;-85
2024/01/11 04:23:51;;;;;;;1.52;0.50;;;16.30;58.50;;;;;;4857347;29;20186;-84
2024/01/11 04:26:17;;;;;;;1.50;0.63;;;16.30;58.50;;;;;;4871540;29;20239;-84
2024/01/11 04:28:46;;;;;;;3.72;0.73;;;16.30;58.20;;;;;;4871464;29;20223;-85
2024/01/11 04:31:12;;;;;;;1.52;0.68;;;16.30;58.40;;;;;;4871973;29;20156;-85
2024/01/11 04:33:41;;;;;;;1.98;0.70;;;16.30;58.40;;;;;;4871649;29;20198;-85
2024/01/11 04:36:08;;;;;;;0.70;0.47;;;16.20;58.50;;;;;;4855946;29;20280;-85
2024/01/11 04:38:37;;;;;;;3.20;0.60;;;16.20;58.20;;;;;;4871667;29;20195;-84
2024/01/11 04:41:17;;;;;;;1.80;0.70;;;16.30;58.50;;;;;;4853911;29;20203;-85
2024/01/11 04:43:43;;;;;;;1.23;0.65;;;16.30;58.50;;;;;;4868357;29;20163;-84
2024/01/11 04:46:17;;;;;;;1.90;0.60;;;16.20;58.40;;;;;;4858592;29;20172;-84
2024/01/11 04:48:43;;;;;;;3.08;0.77;;;16.30;58.50;;;;;;4853423;29;20164;-83
2024/01/11 04:51:10;;;;;;;2.40;0.70;;;16.30;58.40;;;;;;4837373;29;20532;-85
2024/01/11 04:53:38;;;;;;;1.92;0.65;;;16.30;58.30;;;;;;4837913;29;20179;-85
2024/01/11 04:56:04;;;;;;;2.83;0.60;;;16.30;58.30;;;;;;4851570;29;20721;-85
2024/01/11 04:58:31;;;;;;;1.13;0.60;;;16.20;58.50;;;;;;4884913;29;20192;-84
2024/01/11 05:14:19;;;;;;;2.58;0.77;;;16.30;58.20;;;;;;5824495;23;21280;-85
2024/01/11 05:16:45;;;;;;;1.77;0.70;;;16.30;58.40;;;;;;4905049;29;20203;-85
2024/01/11 05:19:11;;;;;;;1.83;0.50;;;16.30;58.10;;;;;;4907752;29;20563;-85
2024/01/11 05:21:37;;;;;;;2.25;0.60;;;16.30;58.30;;;;;;4931284;29;20253;-85
2024/01/11 05:24:04;;;;;;;1.63;0.60;;;16.30;58.10;;;;;;4923283;29;20171;-84
2024/01/11 05:26:29;;;;;;;1.40;0.70;;;16.20;58.30;;;;;;4923636;29;20177;-86
2024/01/11 05:28:55;;;;;;;2.15;0.50;;;16.20;58.50;;;;;;4923847;29;20541;-84
2024/01/11 05:31:22;;;;;;;2.45;0.70;;;16.20;58.40;;;;;;4923222;29;20162;-85
2024/01/11 05:33:48;;;;;;;3.47;0.57;;;16.30;58.30;;;;;;4907403;29;20738;-84
2024/01/11 05:36:13;;;;;;;1.30;0.57;;;16.30;58.10;;;;;;4907029;29;20172;-85
2024/01/11 05:38:40;;;;;;;1.55;0.70;;;16.20;58.20;;;;;;4907190;29;20297;-84
2024/01/11 05:41:13;;;;;;;2.63;0.60;;;16.20;58.40;;;;;;5058066;23;20245;-85
2024/01/11 05:43:39;;;;;;;1.67;0.43;;;16.30;58.20;;;;;;4853993;29;20183;-84
2024/01/11 05:46:12;;;;;;;1.00;0.70;;;16.20;58.20;;;;;;4887661;29;20176;-84
2024/01/11 05:48:37;;;;;;;0.93;0.40;;;16.20;58.40;;;;;;4903128;29;20171;-84
2024/01/11 05:51:03;;;;;;;1.13;0.70;;;16.20;58.30;;;;;;4889396;29;20203;-84
2024/01/11 05:53:29;;;;;;;1.80;0.50;;;16.20;58.20;;;;;;4920811;29;20199;-85
2024/01/11 05:55:58;;;;;;;3.08;0.90;;;16.20;58.30;;;;;;4919023;29;20181;-84
2024/01/11 05:58:26;;;;;;;1.42;0.50;;;16.20;58.10;;;;;;4890248;29;20194;-83
2024/01/11 06:00:52;;;;;;;1.00;0.60;;;16.30;58.20;;;;;;4920974;29;20163;-85
2024/01/11 06:03:22;;;;;;;1.10;0.52;;;16.20;58.20;;;;;;4880421;29;20639;-86
2024/01/11 06:05:51;;;;;;;1.42;0.60;;;16.20;58.20;;;;;;4851505;29;20248;-86
2024/01/11 06:08:16;;;;;;;2.10;0.60;;;16.20;58.20;;;;;;4882605;29;20587;-85
2024/01/11 06:10:42;;;;;;;0.65;0.60;;;16.20;58.50;;;;;;4851522;29;20179;-84
2024/01/11 06:13:09;;;;;;;1.77;0.60;;;16.20;58.50;;;;;;4852161;29;20190;-85
2024/01/11 06:15:35;;;;;;;0.93;0.47;;;16.20;58.60;;;;;;4855149;29;20192;-84
2024/01/11 06:18:02;;;;;;;4.10;0.60;;;16.20;58.50;;;;;;4850393;29;20219;-85
2024/01/11 06:20:33;;;;;;;1.17;0.50;;;16.10;58.50;;;;;;4850548;29;20175;-85
2024/01/11 06:22:59;;;;;;;1.70;0.80;;;16.10;58.40;;;;;;4836790;29;20207;-85
2024/01/11 06:25:28;;;;;;;0.60;0.40;;;16.20;58.50;;;;;;4870799;29;20168;-85
2024/01/11 06:27:54;;;;;;;2.40;0.70;;;16.20;58.30;;;;;;4894124;29;20245;-84
2024/01/11 06:30:20;;;;;;;1.98;0.60;;;16.20;58.20;;;;;;4835037;29;20172;-86
2024/01/11 06:32:47;;;;;;;1.58;0.80;;;16.30;58.30;;;;;;4849213;29;20190;-85
2024/01/11 06:35:14;;;;;;;1.73;0.77;;;16.20;58.40;;;;;;4866952;29;20191;-85
2024/01/11 06:37:40;;;;;;;0.95;0.52;;;16.10;58.20;;;;;;4883920;29;20204;-85
2024/01/11 06:40:08;;;;;;;1.48;0.60;;;16.20;58.40;;;;;;4879789;29;20274;-85
2024/01/11 06:42:37;;;;;;;1.10;0.63;;;16.20;58.40;;;;;;4876064;29;20183;-85
2024/01/11 06:45:08;;;;;;;2.15;0.60;;;16.20;58.40;;;;;;4892062;29;20210;-84
2024/01/11 06:47:35;;;;;;;1.25;0.70;;;16.20;58.40;;;;;;4893239;29;20253;-85
2024/01/11 06:50:06;;;;;;;1.77;0.55;;;16.20;58.20;;;;;;4874231;29;20194;-83
2024/01/11 06:52:31;;;;;;;1.58;0.65;;;16.20;58.40;;;;;;4862042;29;20676;-85
2024/01/11 06:54:57;;;;;;;1.23;0.60;;;16.20;58.30;;;;;;4908799;29;20163;-85
2024/01/11 06:57:24;;;;;;;1.05;0.30;;;16.20;58.40;;;;;;4908430;29;20194;-85
2024/01/11 06:59:50;;;;;;;1.60;0.60;;;16.20;58.30;;;;;;4892973;29;20186;-87
2024/01/11 07:02:24;;;;;;;0.68;0.50;;;16.10;58.30;;;;;;4873349;29;20190;-85
2024/01/11 07:04:50;;;;;;;1.58;0.63;;;16.20;58.30;;;;;;4889735;29;20170;-85
2024/01/11 07:07:16;;;;;;;1.35;0.70;;;16.20;58.30;;;;;;4881333;29;20510;-85
2024/01/11 07:09:42;;;;;;;2.05;0.50;;;16.20;58.20;;;;;;4892859;29;20233;-85
2024/01/11 07:12:08;;;;;;;0.93;0.60;;;16.30;58.10;;;;;;5044441;23;20280;-85
2024/01/11 07:14:33;;;;;;;1.00;0.52;;;16.20;57.90;;;;;;4893433;29;20197;-86
2024/01/11 07:16:59;;;;;;;1.60;0.70;;;16.50;57.50;;;;;;4955012;23;20222;-85
2024/01/11 07:19:26;;;;;;;1.15;0.60;;;16.40;57.40;;;;;;4911400;29;20642;-84
2024/01/11 07:21:55;;;;;;;0.60;0.50;;;16.50;57.30;;;;;;4894879;29;20831;-84
2024/01/11 07:24:23;;;;;;;1.17;0.57;;;16.50;57.20;;;;;;4949797;23;20263;-84
2024/01/11 07:26:49;;;;;;;1.23;0.50;;;16.50;57.40;;;;;;4923860;29;20179;-85
2024/01/11 07:29:16;;;;;;;0.93;0.55;;;16.60;57.00;;;;;;4923369;29;20197;-85
2024/01/11 07:31:41;;;;;;;1.23;0.60;;;16.60;57.40;;;;;;4895080;29;20226;-84
2024/01/11 07:34:07;;;;;;;1.95;0.70;;;16.50;57.20;;;;;;4879435;29;20631;-84
2024/01/11 07:36:33;;;;;;;0.70;0.55;;;16.60;57.30;;;;;;4894766;29;20187;-85
2024/01/11 07:38:59;;;;;;;1.02;0.50;;;16.50;57.40;;;;;;4893199;29;20196;-84
2024/01/11 07:41:26;;;;;;;2.10;0.70;;;16.60;57.30;;;;;;4892219;29;20184;-84
2024/01/11 07:43:53;;;;;;;1.77;0.40;;;16.60;57.20;;;;;;4873120;29;20187;-84
2024/01/11 07:46:19;;;;;;;1.35;0.45;;;16.60;57.50;;;;;;4889993;29;20164;-84
2024/01/11 07:48:45;;;;;;;1.67;0.70;;;16.60;57.40;;;;;;4906050;29;20254;-84
2024/01/11 07:51:14;;;;;;;2.00;0.40;;;16.60;57.70;;;;;;4915953;29;20204;-84
2024/01/11 07:53:40;;;;;;;1.27;0.60;;;16.50;57.60;;;;;;4910231;29;20169;-85
2024/01/11 07:56:07;;;;;;;0.90;0.50;;;16.50;57.40;;;;;;4909129;29;20184;-84
2024/01/11 07:58:35;;;;;;;1.40;0.60;;;16.50;57.40;;;;;;4889249;29;20259;-83
2024/01/11 08:01:06;;;;;;;1.58;0.60;;;16.60;56.70;;;;;;4858618;29;20178;-83
2024/01/11 08:03:34;;;;;;;1.23;0.60;;;16.60;57.10;;;;;;4856561;29;20259;-85
2024/01/11 08:06:08;;;;;;;1.00;0.50;;;16.60;57.30;;;;;;4903432;29;20261;-84
2024/01/11 08:08:38;;;;;;;2.00;0.50;;;16.60;57.30;;;;;;4892675;29;20226;-83
2024/01/11 08:11:07;;;;;;;1.10;0.50;;;16.60;57.20;;;;;;4855627;29;20195;-83
2024/01/11 08:13:37;;;;;;;1.25;0.50;;;16.60;57.30;;;;;;4824160;29;20198;-83
2024/01/11 08:16:09;;;;;;;0.60;0.50;;;16.60;57.30;;;;;;4855157;29;20191;-83
2024/01/11 08:18:37;;;;;;;1.90;0.70;;;16.70;56.80;;;;;;4826313;29;20318;-84
2024/01/11 08:21:10;;;;;;;1.70;0.50;;;16.60;57.20;;;;;;4844550;29;20187;-84
2024/01/11 08:53:01;;;;;;;1.08;0.50;;;16.80;56.90;;;;;;5630560;23;20669;-84
2024/01/11 08:55:27;;;;;;;1.40;0.40;;;16.80;56.60;;;;;;4852962;29;20229;-84
2024/01/11 08:57:53;;;;;;;1.00;0.60;;;16.90;56.60;;;;;;4838345;29;20408;-84
2024/01/11 09:00:29;;;;;;;1.25;0.60;;;16.80;56.70;;;;;;4850999;29;20166;-85
2024/01/11 09:02:58;;;;;;;0.40;0.40;;;16.80;56.50;;;;;;4797379;29;20558;-84
2024/01/11 09:05:26;;;;;;;0.40;0.40;;;16.80;56.70;;;;;;4822468;29;20188;-84
2024/01/11 09:07:52;;;;;;;1.00;0.50;;;16.80;56.20;;;;;;4814886;29;20198;-85
2024/01/11 09:10:18;;;;;;;1.00;0.60;;;16.90;56.20;;;;;;4830051;29;20166;-85
2024/01/11 09:12:46;;;;;;;1.23;0.40;;;16.80;56.50;;;;;;4815097;29;20620;-83
2024/01/11 09:15:12;;;;;;;1.13;0.30;;;16.80;56.40;;;;;;4811626;29;20270;-84
2024/01/11 09:17:40;;;;;;;0.70;0.45;;;16.80;56.50;;;;;;4778528;30;20746;-85
2024/01/11 09:20:06;;;;;;;1.50;0.43;;;16.80;56.60;;;;;;4778535;30;20285;-84
2024/01/11 09:22:32;;;;;;;1.02;0.50;;;16.80;56.60;;;;;;4778603;30;20195;-84
2024/01/11 09:24:58;;;;;;;1.90;0.73;;;16.80;56.80;;;;;;4778672;30;20184;-85
2024/01/11 09:27:24;;;;;;;0.82;0.52;;;16.80;56.20;;;;;;4778018;30;20783;-84
2024/01/11 09:29:50;;;;;;;1.13;0.50;;;16.80;56.80;;;;;;4792918;30;21006;-85
2024/01/11 09:32:15;;;;;;;0.63;0.43;;;16.90;56.70;;;;;;4777477;30;20241;-86
2024/01/11 09:34:45;;;;;;;2.17;0.40;;;16.90;56.60;;;;;;4792504;30;20188;-84
2024/01/11 09:37:14;;;;;;;0.20;0.20;;;16.90;56.40;;;;;;4791267;29;20204;-83
2024/01/11 09:39:42;;;;;;;1.65;0.40;;;16.90;56.10;;;;;;4791822;30;20183;-84
2024/01/11 09:42:12;;;;;;;1.98;0.57;;;16.90;56.40;;;;;;4792875;30;20175;-85
2024/01/11 09:44:38;;;;;;;0.60;0.40;;;16.90;56.30;;;;;;4798590;30;20172;-84
2024/01/11 09:47:16;;;;;;;0.75;0.40;;;16.90;56.50;;;;;;4829236;29;20554;-85
2024/01/11 09:49:45;;;;;;;2.10;0.47;;;17.00;56.60;;;;;;4828882;29;20180;-86
2024/01/11 09:52:12;;;;;;;0.52;0.40;;;17.00;56.20;;;;;;4858534;29;20242;-85
2024/01/11 09:54:41;;;;;;;1.25;0.47;;;16.90;56.40;;;;;;4839980;29;20212;-86
2024/01/11 09:57:24;;;;;;;0.93;0.47;;;17.00;56.20;;;;;;4839367;29;20223;-84
2024/01/11 09:59:53;;;;;;;0.73;0.30;;;17.00;56.00;;;;;;4835776;29;20177;-84
2024/01/11 10:02:19;;;;;;;1.80;0.40;;;17.00;56.10;;;;;;4782168;29;20190;-86
2024/01/11 10:04:52;;;;;;;1.10;0.47;;;17.00;56.20;;;;;;4798340;29;20195;-85
2024/01/11 10:07:22;;;;;;;1.42;0.50;;;17.10;55.60;;;;;;4799095;29;20199;-85
2024/01/11 10:09:58;;;;;;;1.13;0.50;;;17.10;56.20;;;;;;4813797;29;20244;-85
2024/01/11 10:12:30;;;;;;;0.68;0.30;;;17.00;56.40;;;;;;4811349;29;20190;-85
2024/01/11 10:15:10;;;;;;;0.93;0.40;;;17.00;55.80;;;;;;4795111;29;20171;-85
2024/01/11 10:17:41;;;;;;;1.45;0.60;;;17.10;56.20;;;;;;4776061;30;20224;-85
2024/01/11 10:20:10;;;;;;;0.55;0.40;;;17.10;55.90;;;;;;4773790;30;20685;-85
2024/01/11 10:22:36;;;;;;;0.77;0.47;;;17.10;55.90;;;;;;4755270;30;20189;-84
2024/01/11 10:25:10;;;;;;;0.70;0.43;;;17.10;56.00;;;;;;4754773;30;20211;-85
2024/01/11 10:27:37;;;;;;;0.50;0.38;;;17.00;56.40;;;;;;4759133;30;20664;-83
2024/01/11 10:30:03;;;;;;;0.75;0.47;;;17.00;55.90;;;;;;4775847;30;20171;-83
2024/01/11 10:32:34;;;;;;;0.68;0.40;;;17.10;56.10;;;;;;4780848;29;20190;-84
2024/01/11 10:35:04;;;;;;;1.42;0.55;;;17.10;56.00;;;;;;4810752;29;20186;-83
2024/01/11 10:37:33;;;;;;;0.52;0.40;;;17.10;56.30;;;;;;4806968;29;20221;-85
2024/01/11 10:40:10;;;;;;;1.23;0.40;;;17.10;56.40;;;;;;4775749;30;20187;-85
2024/01/11 10:42:39;;;;;;;5.28;0.52;;;17.00;56.60;;;;;;4775176;30;20191;-84
2024/01/11 10:45:09;;;;;;;1.58;0.47;;;17.10;56.40;;;;;;4775135;30;20258;-84
2024/01/11 10:47:37;;;;;;;1.00;0.30;;;17.00;56.50;;;;;;4776558;30;20282;-84
2024/01/11 10:50:04;;;;;;;0.70;0.50;;;17.10;56.40;;;;;;4789359;29;20191;-84
2024/01/11 10:52:36;;;;;;;0.60;0.40;;;17.00;56.20;;;;;;4791783;29;20656;-86
2024/01/11 10:55:02;;;;;;;3.75;0.40;;;17.10;56.00;;;;;;4790189;30;20195;-85
2024/01/11 10:57:29;;;;;;;1.88;0.43;;;17.10;56.10;;;;;;4791817;30;20306;-85
2024/01/11 11:00:03;;;;;;;1.92;0.40;;;17.00;56.10;;;;;;4782820;30;20215;-84
2024/01/11 11:02:52;;;;;;;0.73;0.40;;;17.10;56.00;;;;;;4742567;30;20262;-85
2024/01/11 11:05:22;;;;;;;1.67;0.60;;;17.10;56.40;;;;;;4772146;30;20196;-86
2024/01/11 11:07:51;;;;;;;2.42;0.60;;;17.00;56.40;;;;;;4775289;30;20261;-86
2024/01/11 11:10:21;;;;;;;1.20;0.50;;;17.10;56.30;;;;;;4774719;30;20219;-85
2024/01/11 11:12:47;;;;;;;1.40;0.60;;;17.10;56.30;;;;;;4774600;30;20183;-85
2024/01/11 11:15:17;;;;;;;1.67;0.63;;;17.00;56.50;;;;;;4783691;29;20695;-85
2024/01/11 11:17:45;;;;;;;3.22;0.50;;;17.00;56.50;;;;;;4812050;29;20309;-85
2024/01/11 11:20:16;;;;;;;1.33;0.43;;;17.00;56.50;;;;;;4809178;29;20194;-82
2024/01/11 11:22:42;;;;;;;0.75;0.45;;;17.10;56.20;;;;;;4807377;29;20194;-84
2024/01/11 11:25:24;;;;;;;3.15;0.60;;;17.10;56.40;;;;;;4807450;29;20698;-82
2024/01/11 11:27:53;;;;;;;2.65;0.60;;;17.10;56.10;;;;;;4786315;29;20206;-84
2024/01/11 11:30:20;;;;;;;2.05;0.35;;;17.10;56.30;;;;;;4799028;29;20182;-82
2024/01/11 11:32:48;;;;;;;0.55;0.30;;;17.10;56.20;;;;;;4836405;29;20267;-83
2024/01/11 11:35:24;;;;;;;2.25;0.52;;;17.10;56.10;;;;;;4856420;29;20197;-86
2024/01/11 11:38:11;;;;;;;2.35;0.60;;;17.10;56.00;;;;;;4822400;29;20224;-84
2024/01/11 11:40:39;;;;;;;1.50;0.40;;;17.10;56.10;;;;;;4800124;29;20190;-83
2024/01/11 11:43:06;;;;;;;0.98;0.40;;;17.10;56.50;;;;;;4812492;29;20186;-85
2024/01/11 11:45:33;;;;;;;2.80;0.50;;;17.00;56.20;;;;;;4812312;29;20177;-84
2024/01/11 11:48:26;;;;;;;1.00;0.35;;;17.00;56.20;;;;;;4841971;29;20738;-83
2024/01/11 11:51:18;;;;;;;0.77;0.35;;;17.00;56.20;;;;;;4828661;29;20704;-85
2024/01/11 11:53:48;;;;;;;0.60;0.30;;;17.20;55.70;;;;;;4826128;29;20221;-85
2024/01/11 11:56:19;;;;;;;1.95;0.40;;;17.10;56.00;;;;;;4811543;29;20182;-83
2024/01/11 11:58:46;;;;;;;3.00;0.40;;;17.10;55.60;;;;;;4797799;29;20209;-82
2024/01/11 12:01:17;;;;;;;1.38;0.40;;;17.10;55.40;;;;;;4827595;29;20252;-83
2024/01/11 12:03:59;;;;;;;1.45;0.38;;;17.10;55.70;;;;;;4832582;29;20569;-83
2024/01/11 12:06:33;;;;;;;0.82;0.40;;;17.20;55.80;;;;;;4818156;29;20192;-83
2024/01/11 12:08:59;;;;;;;5.45;0.30;;;17.20;55.90;;;;;;4816470;29;20732;-82
2024/01/11 12:11:25;;;;;;;1.38;0.40;;;17.20;55.90;;;;;;4828643;29;20181;-82
2024/01/11 12:13:52;;;;;;;2.15;0.50;;;17.10;55.70;;;;;;4814306;29;20169;-84
2024/01/11 12:16:18;;;;;;;3.45;0.50;;;17.20;55.30;;;;;;4814206;29;20173;-84
2024/01/11 12:18:48;;;;;;;1.35;0.52;;;17.20;55.80;;;;;;4814124;29;20202;-84
2024/01/11 12:21:16;;;;;;;3.90;0.47;;;17.20;55.50;;;;;;4798053;29;20220;-84
2024/01/11 12:23:48;;;;;;;2.40;0.55;;;17.20;55.70;;;;;;4835732;29;20178;-83
2024/01/11 12:26:32;;;;;;;4.78;0.73;;;17.20;55.90;;;;;;4814996;29;20670;-84
2024/01/11 12:29:05;;;;;;;1.02;0.50;;;17.20;55.40;;;;;;4813792;29;20305;-84
2024/01/11 12:32:00;;;;;;;1.35;0.47;;;17.10;55.50;;;;;;4812791;29;20202;-82
2024/01/11 12:42:10;;;;;;;;;;;;;;;;;;;;;
2024/01/11 12:45:01;;;;;;;1.55;0.57;;;17.30;55.70;;;;;;4703638;30;20293;-83
2024/01/11 12:47:26;;;;;;;0.80;0.30;;;17.20;55.10;;;;;;4722422;30;20205;-84
2024/01/11 12:49:55;;;;;;;6.32;0.65;;;17.20;55.70;;;;;;4724741;30;20685;-84
2024/01/11 12:52:25;;;;;;;10.07;1.27;;;17.20;55.40;;;;;;4710079;30;20198;-83
2024/01/11 12:54:52;;;;;;;8.73;0.98;;;17.20;55.70;;;;;;4702443;30;20235;-84
2024/01/11 12:57:19;;;;;;;6.00;0.70;;;17.10;55.80;;;;;;4689642;30;20267;-83
2024/01/11 12:59:46;;;;;;;3.05;0.70;;;17.20;55.30;;;;;;4690894;30;20199;-83
2024/01/11 13:02:14;;;;;;;9.48;0.80;;;17.20;55.50;;;;;;4714347;30;20611;-84
2024/01/11 13:04:55;;;;;;;5.40;0.80;;;17.20;55.60;;;;;;4691043;30;20214;-84
2024/01/11 13:07:22;;;;;;;3.72;0.60;;;17.10;55.60;;;;;;4679634;30;20247;-83
2024/01/11 13:09:48;;;;;;;3.60;0.50;;;17.10;55.90;;;;;;4694416;30;20294;-82
2024/01/11 13:12:14;;;;;;;1.33;0.50;;;17.20;55.40;;;;;;4717935;30;20221;-83
2024/01/11 13:14:47;;;;;;;2.85;0.40;;;17.30;55.40;;;;;;4729884;30;20721;-82
2024/01/11 13:17:16;;;;;;;0.95;0.45;;;17.30;55.40;;;;;;4745048;30;20192;-83
2024/01/11 13:19:43;;;;;;;0.75;0.40;;;17.30;55.00;;;;;;4805442;29;20198;-84
2024/01/11 13:22:09;;;;;;;2.45;0.47;;;17.40;54.90;;;;;;4812960;29;20223;-82
2024/01/11 13:24:35;;;;;;;2.20;0.43;;;17.40;55.10;;;;;;4819988;29;20186;-83
2024/01/11 13:27:07;;;;;;;3.10;0.55;;;17.50;55.20;;;;;;4854015;29;20622;-83
2024/01/11 13:29:43;;;;;;;3.95;0.52;;;17.50;54.90;;;;;;4836720;29;20189;-83
2024/01/11 13:32:10;;;;;;;6.30;0.60;;;17.50;54.90;;;;;;4817131;29;20205;-82
2024/01/11 13:34:37;;;;;;;3.40;0.60;;;17.60;55.00;;;;;;4827674;29;20541;-82
2024/01/11 13:37:03;;;;;;;1.40;0.60;;;17.60;55.20;;;;;;4815942;29;20181;-82
2024/01/11 13:39:29;;;;;;;3.70;0.60;;;17.50;55.20;;;;;;4831879;29;20209;-82
2024/01/11 13:41:55;;;;;;;2.55;0.65;;;17.70;54.80;;;;;;4851545;29;20215;-82
2024/01/11 13:44:21;;;;;;;4.07;0.85;;;17.60;54.90;;;;;;4821842;29;20173;-83
2024/01/11 13:46:50;;;;;;;4.30;0.60;;;17.60;54.80;;;;;;4834149;29;20176;-82
2024/01/11 13:49:15;;;;;;;1.27;0.45;;;17.60;55.50;;;;;;4862175;29;20185;-83
2024/01/11 13:51:57;;;;;;;2.80;0.38;;;17.60;55.70;;;;;;4860294;29;20203;-83
2024/01/11 13:54:23;;;;;;;1.95;0.47;;;17.60;55.30;;;;;;4840487;29;20600;-83
2024/01/11 13:57:12;;;;;;;4.28;0.63;;;17.60;55.70;;;;;;4840847;29;20181;-82
2024/01/11 14:00:23;;;;;;;;;;;;;;;;;;;;;
2024/01/11 18:53:25;;;;;;;;;;;;;;;;;;;;;
2024/01/11 18:56:58;;;;;;;4.20;1.38;;;19.30;56.10;;;;;;4782810;30;20266;-82
2024/01/11 19:00:27;;;;;;;;;;;;;;;;;;;;;
2024/01/11 19:03:19;;;;;;;;;;;;;;;;;;;;;
2024/01/11 19:07:00;;;;;;;;;;;;;;;;;;;;;
2024/01/11 19:16:12;;;;;;;10.15;1.40;;;19.30;56.00;;;;;;4588921;31;20553;-82
2024/01/11 19:18:47;;;;;;;5.65;1.23;;;19.30;56.70;;;;;;4590879;31;20231;-83
2024/01/11 19:22:20;;;;;;;;;;;;;;;;;;;;;
2024/01/11 19:25:30;;;;;;;;;;;;;;;;;;;;;
2024/01/11 19:28:43;;;;;;;2.88;1.42;;;19.20;56.60;;;;;;4590269;31;20246;-83
2024/01/11 19:31:48;;;;;;;;;;;;;;;;;;;;;
2024/01/11 19:34:56;;;;;;;3.35;1.52;;;19.30;56.20;;;;;;4532675;31;20198;-84
2024/01/11 19:37:31;;;;;;;5.65;1.48;;;19.40;57.10;;;;;;4509073;31;20215;-80
2024/01/11 19:39:57;;;;;;;5.60;1.42;;;19.40;56.90;;;;;;4499432;31;20209;-82
2024/01/11 19:42:50;;;;;;;7.20;1.35;;;19.30;57.50;;;;;;4511746;31;20283;-82
2024/01/11 19:45:41;;;;;;;;;;;;;;;;;;;;;
2024/01/11 19:48:25;;;;;;;4.18;1.40;;;19.40;57.60;;;;;;4542688;31;20357;-81
2024/01/11 19:50:54;;;;;;;3.55;1.30;;;19.30;57.80;;;;;;4536082;31;20289;-82
2024/01/11 19:53:55;;;;;;;7.78;1.35;;;19.30;57.70;;;;;;4537538;31;20229;-84
2024/01/11 19:56:21;;;;;;;4.90;1.52;;;19.40;57.90;;;;;;4608005;31;20231;-82
2024/01/11 19:59:15;;;;;;;;;;;;;;;;;;;;;
2024/01/11 20:01:48;;;;;;;7.72;1.38;;;19.30;57.80;;;;;;4653154;30;20234;-81
2024/01/11 20:04:40;;;;;;;3.90;1.20;;;19.10;57.90;;;;;;4678950;30;20213;-82
2024/01/11 20:07:19;;;;;;;6.60;1.50;;;19.20;58.20;;;;;;4710951;30;20211;-82
2024/01/11 20:09:59;;;;;;;4.38;1.38;;;19.20;58.20;;;;;;4780149;29;20267;-82
2024/01/11 20:12:28;;;;;;;4.63;1.67;;;19.10;58.80;;;;;;4808637;29;20272;-81
2024/01/11 20:15:23;;;;;;;2.40;1.30;;;19.20;58.20;;;;;;4812829;29;20286;-84